sensor_id;sensor_type;location;lat;lon;timestamp;temperature;humidity
26641;DHT22;14269;47.358;0.724;2023-09-19T00:00:28;18.0;72.0
26641;DHT22;14269;47.358;0.724;2023-09-19T00:03:09;18.0;73.0
26641;DHT22;14269;47.358;0.724;2023-09-19T00:05:50;18.0;73.0
26641;DHT22;14269;47.358;0.724;2023-09-19T00:08:24;17.0;73.0
26641;DHT22;14269;47.358;0.724;2023-09-19T00:11:03;17.0;74.0
26641;DHT22;14269;47.358;0.724;2023-09-19T00:13:36;17.0;74.0
26641;DHT22;14269;47.358;0.724;2023-09-19T00:16:19;17.0;73.0
26641;DHT22;14269;47.358;0.724;2023-09-19T00:19:03;17.0;74.0
26641;DHT22;14269;47.358;0.724;2023-09-19T00:21:41;17.0;74.0
26641;DHT22;14269;47.358;0.724;2023-09-19T00:24:12;17.0;73.0
26641;DHT22;14269;47.358;0.724;2023-09-19T00:26:54;17.0;73.0
26641;DHT22;14269;47.358;0.724;2023-09-19T00:29:35;17.0;72.0
26641;DHT22;14269;47.358;0.724;2023-09-19T00:32:08;17.0;73.0
26641;DHT22;14269;47.358;0.724;2023-09-19T00:34:49;17.0;73.0
26641;DHT22;14269;47.358;0.724;2023-09-19T00:37:20;17.0;73.0
26641;DHT22;14269;47.358;0.724;2023-09-19T00:39:52;17.0;73.0
26641;DHT22;14269;47.358;0.724;2023-09-19T00:42:25;17.0;73.0
26641;DHT22;14269;47.358;0.724;2023-09-19T00:45:07;17.0;73.0
26641;DHT22;14269;47.358;0.724;2023-09-19T00:47:49;17.0;73.0
26641;DHT22;14269;47.358;0.724;2023-09-19T00:50:32;17.0;73.0
26641;DHT22;14269;47.358;0.724;2023-09-19T00:53:15;17.0;72.0
26641;DHT22;14269;47.358;0.724;2023-09-19T00:55:53;17.0;72.0
26641;DHT22;14269;47.358;0.724;2023-09-19T00:58:24;17.0;72.0
26641;DHT22;14269;47.358;0.724;2023-09-19T01:00:56;17.0;72.0
26641;DHT22;14269;47.358;0.724;2023-09-19T01:03:27;17.0;73.0
26641;DHT22;14269;47.358;0.724;2023-09-19T01:06:00;17.0;73.0
26641;DHT22;14269;47.358;0.724;2023-09-19T01:08:41;17.0;73.0
26641;DHT22;14269;47.358;0.724;2023-09-19T01:11:18;17.0;73.0
26641;DHT22;14269;47.358;0.724;2023-09-19T01:13:58;17.0;72.0
26641;DHT22;14269;47.358;0.724;2023-09-19T01:17:13;17.0;72.0
26641;DHT22;14269;47.358;0.724;2023-09-19T01:20:18;17.0;72.0
26641;DHT22;14269;47.358;0.724;2023-09-19T01:23:05;17.0;73.0
26641;DHT22;14269;47.358;0.724;2023-09-19T01:26:02;17.0;72.0
26641;DHT22;14269;47.358;0.724;2023-09-19T01:29:00;17.0;72.0
26641;DHT22;14269;47.358;0.724;2023-09-19T01:31:37;17.0;73.0
26641;DHT22;14269;47.358;0.724;2023-09-19T01:34:18;17.0;73.0
26641;DHT22;14269;47.358;0.724;2023-09-19T01:36:49;17.0;73.0
26641;DHT22;14269;47.358;0.724;2023-09-19T01:39:21;17.0;74.0
26641;DHT22;14269;47.358;0.724;2023-09-19T01:41:58;17.0;74.0
26641;DHT22;14269;47.358;0.724;2023-09-19T01:44:57;17.0;75.0
26641;DHT22;14269;47.358;0.724;2023-09-19T01:47:41;16.0;75.0
26641;DHT22;14269;47.358;0.724;2023-09-19T01:50:30;16.0;74.0
26641;DHT22;14269;47.358;0.724;2023-09-19T01:53:15;16.0;75.0
26641;DHT22;14269;47.358;0.724;2023-09-19T01:55:52;16.0;76.0
26641;DHT22;14269;47.358;0.724;2023-09-19T01:58:39;16.0;76.0
26641;DHT22;14269;47.358;0.724;2023-09-19T02:01:20;16.0;75.0
26641;DHT22;14269;47.358;0.724;2023-09-19T02:03:58;16.0;75.0
26641;DHT22;14269;47.358;0.724;2023-09-19T02:06:39;16.0;75.0
26641;DHT22;14269;47.358;0.724;2023-09-19T02:09:10;16.0;76.0
26641;DHT22;14269;47.358;0.724;2023-09-19T02:11:42;16.0;76.0
26641;DHT22;14269;47.358;0.724;2023-09-19T02:14:15;16.0;76.0
26641;DHT22;14269;47.358;0.724;2023-09-19T02:16:56;16.0;77.0
26641;DHT22;14269;47.358;0.724;2023-09-19T02:19:27;16.0;77.0
26641;DHT22;14269;47.358;0.724;2023-09-19T02:21:59;16.0;77.0
26641;DHT22;14269;47.358;0.724;2023-09-19T02:24:31;16.0;77.0
26641;DHT22;14269;47.358;0.724;2023-09-19T02:27:04;16.0;77.0
26641;DHT22;14269;47.358;0.724;2023-09-19T02:29:44;16.0;77.0
26641;DHT22;14269;47.358;0.724;2023-09-19T02:32:18;16.0;77.0
26641;DHT22;14269;47.358;0.724;2023-09-19T02:34:58;16.0;77.0
26641;DHT22;14269;47.358;0.724;2023-09-19T02:37:29;16.0;77.0
26641;DHT22;14269;47.358;0.724;2023-09-19T02:40:01;16.0;78.0
26641;DHT22;14269;47.358;0.724;2023-09-19T02:42:32;16.0;77.0
26641;DHT22;14269;47.358;0.724;2023-09-19T02:45:04;16.0;77.0
26641;DHT22;14269;47.358;0.724;2023-09-19T02:47:46;16.0;78.0
26641;DHT22;14269;47.358;0.724;2023-09-19T02:50:17;16.0;78.0
26641;DHT22;14269;47.358;0.724;2023-09-19T02:52:49;16.0;78.0
26641;DHT22;14269;47.358;0.724;2023-09-19T02:55:22;16.0;78.0
26641;DHT22;14269;47.358;0.724;2023-09-19T02:58:05;16.0;78.0
26641;DHT22;14269;47.358;0.724;2023-09-19T03:00:47;16.0;78.0
26641;DHT22;14269;47.358;0.724;2023-09-19T03:03:28;16.0;78.0
26641;DHT22;14269;47.358;0.724;2023-09-19T03:06:09;16.0;78.0
26641;DHT22;14269;47.358;0.724;2023-09-19T03:08:51;16.0;78.0
26641;DHT22;14269;47.358;0.724;2023-09-19T03:11:31;16.0;79.0
26641;DHT22;14269;47.358;0.724;2023-09-19T03:14:04;16.0;79.0
26641;DHT22;14269;47.358;0.724;2023-09-19T03:16:44;15.0;79.0
26641;DHT22;14269;47.358;0.724;2023-09-19T03:19:16;15.0;79.0
26641;DHT22;14269;47.358;0.724;2023-09-19T03:21:49;16.0;79.0
26641;DHT22;14269;47.358;0.724;2023-09-19T03:24:31;16.0;79.0
26641;DHT22;14269;47.358;0.724;2023-09-19T03:27:16;16.0;79.0
26641;DHT22;14269;47.358;0.724;2023-09-19T03:29:53;16.0;79.0
26641;DHT22;14269;47.358;0.724;2023-09-19T03:32:25;16.0;79.0
26641;DHT22;14269;47.358;0.724;2023-09-19T03:34:56;16.0;79.0
26641;DHT22;14269;47.358;0.724;2023-09-19T03:37:28;16.0;79.0
26641;DHT22;14269;47.358;0.724;2023-09-19T03:40:05;16.0;79.0
26641;DHT22;14269;47.358;0.724;2023-09-19T03:42:42;16.0;79.0
26641;DHT22;14269;47.358;0.724;2023-09-19T03:45:13;15.0;79.0
26641;DHT22;14269;47.358;0.724;2023-09-19T03:47:55;16.0;80.0
26641;DHT22;14269;47.358;0.724;2023-09-19T03:50:26;16.0;79.0
26641;DHT22;14269;47.358;0.724;2023-09-19T03:52:58;15.0;79.0
26641;DHT22;14269;47.358;0.724;2023-09-19T03:55:30;15.0;80.0
26641;DHT22;14269;47.358;0.724;2023-09-19T03:58:01;16.0;79.0
26641;DHT22;14269;47.358;0.724;2023-09-19T04:00:34;15.0;79.0
26641;DHT22;14269;47.358;0.724;2023-09-19T04:03:19;15.0;80.0
26641;DHT22;14269;47.358;0.724;2023-09-19T04:05:56;15.0;81.0
26641;DHT22;14269;47.358;0.724;2023-09-19T04:08:29;15.0;81.0
26641;DHT22;14269;47.358;0.724;2023-09-19T04:11:10;15.0;80.0
26641;DHT22;14269;47.358;0.724;2023-09-19T04:13:41;15.0;80.0
26641;DHT22;14269;47.358;0.724;2023-09-19T04:16:13;15.0;80.0
26641;DHT22;14269;47.358;0.724;2023-09-19T04:18:45;15.0;80.0
26641;DHT22;14269;47.358;0.724;2023-09-19T04:21:17;15.0;80.0
26641;DHT22;14269;47.358;0.724;2023-09-19T04:23:49;15.0;80.0
26641;DHT22;14269;47.358;0.724;2023-09-19T04:26:20;15.0;80.0
26641;DHT22;14269;47.358;0.724;2023-09-19T04:29:03;15.0;81.0
26641;DHT22;14269;47.358;0.724;2023-09-19T04:31:45;15.0;80.0
26641;DHT22;14269;47.358;0.724;2023-09-19T04:34:25;15.0;80.0
26641;DHT22;14269;47.358;0.724;2023-09-19T04:36:58;15.0;80.0
26641;DHT22;14269;47.358;0.724;2023-09-19T04:39:38;15.0;80.0
26641;DHT22;14269;47.358;0.724;2023-09-19T04:42:14;15.0;81.0
26641;DHT22;14269;47.358;0.724;2023-09-19T04:44:53;15.0;80.0
26641;DHT22;14269;47.358;0.724;2023-09-19T04:47:33;15.0;81.0
26641;DHT22;14269;47.358;0.724;2023-09-19T04:50:08;15.0;81.0
26641;DHT22;14269;47.358;0.724;2023-09-19T04:52:50;15.0;81.0
26641;DHT22;14269;47.358;0.724;2023-09-19T04:55:30;15.0;81.0
26641;DHT22;14269;47.358;0.724;2023-09-19T04:58:10;15.0;81.0
26641;DHT22;14269;47.358;0.724;2023-09-19T05:00:42;15.0;81.0
26641;DHT22;14269;47.358;0.724;2023-09-19T05:03:14;15.0;82.0
26641;DHT22;14269;47.358;0.724;2023-09-19T05:05:45;15.0;82.0
26641;DHT22;14269;47.358;0.724;2023-09-19T05:08:17;15.0;81.0
26641;DHT22;14269;47.358;0.724;2023-09-19T05:10:49;15.0;82.0
26641;DHT22;14269;47.358;0.724;2023-09-19T05:13:20;15.0;82.0
26641;DHT22;14269;47.358;0.724;2023-09-19T05:15:52;15.0;81.0
26641;DHT22;14269;47.358;0.724;2023-09-19T05:18:24;15.0;82.0
26641;DHT22;14269;47.358;0.724;2023-09-19T05:20:56;15.0;81.0
26641;DHT22;14269;47.358;0.724;2023-09-19T05:23:27;15.0;81.0
26641;DHT22;14269;47.358;0.724;2023-09-19T05:26:10;15.0;82.0
26641;DHT22;14269;47.358;0.724;2023-09-19T05:28:50;16.0;82.0
26641;DHT22;14269;47.358;0.724;2023-09-19T05:31:23;16.0;81.0
26641;DHT22;14269;47.358;0.724;2023-09-19T05:34:04;16.0;81.0
26641;DHT22;14269;47.358;0.724;2023-09-19T05:36:35;16.0;81.0
26641;DHT22;14269;47.358;0.724;2023-09-19T05:39:09;16.0;81.0
26641;DHT22;14269;47.358;0.724;2023-09-19T05:41:49;15.0;81.0
26641;DHT22;14269;47.358;0.724;2023-09-19T05:44:20;16.0;82.0
26641;DHT22;14269;47.358;0.724;2023-09-19T05:46:56;16.0;82.0
26641;DHT22;14269;47.358;0.724;2023-09-19T05:49:34;16.0;81.0
26641;DHT22;14269;47.358;0.724;2023-09-19T05:52:06;16.0;81.0
26641;DHT22;14269;47.358;0.724;2023-09-19T05:54:37;16.0;81.0
26641;DHT22;14269;47.358;0.724;2023-09-19T05:57:10;16.0;81.0
26641;DHT22;14269;47.358;0.724;2023-09-19T05:59:50;16.0;81.0
26641;DHT22;14269;47.358;0.724;2023-09-19T06:02:22;16.0;81.0
26641;DHT22;14269;47.358;0.724;2023-09-19T06:04:55;16.0;81.0
26641;DHT22;14269;47.358;0.724;2023-09-19T06:07:37;16.0;81.0
26641;DHT22;14269;47.358;0.724;2023-09-19T06:10:18;16.0;81.0
26641;DHT22;14269;47.358;0.724;2023-09-19T06:12:49;16.0;81.0
26641;DHT22;14269;47.358;0.724;2023-09-19T06:15:24;16.0;81.0
26641;DHT22;14269;47.358;0.724;2023-09-19T06:18:05;16.0;81.0
26641;DHT22;14269;47.358;0.724;2023-09-19T06:20:44;16.0;80.0
26641;DHT22;14269;47.358;0.724;2023-09-19T06:23:17;16.0;81.0
26641;DHT22;14269;47.358;0.724;2023-09-19T06:25:58;16.0;81.0
26641;DHT22;14269;47.358;0.724;2023-09-19T06:28:29;16.0;81.0
26641;DHT22;14269;47.358;0.724;2023-09-19T06:31:02;16.0;80.0
26641;DHT22;14269;47.358;0.724;2023-09-19T06:33:43;16.0;80.0
26641;DHT22;14269;47.358;0.724;2023-09-19T06:36:15;16.0;80.0
26641;DHT22;14269;47.358;0.724;2023-09-19T06:38:47;16.0;80.0
26641;DHT22;14269;47.358;0.724;2023-09-19T06:41:30;16.0;80.0
26641;DHT22;14269;47.358;0.724;2023-09-19T06:44:10;16.0;80.0
26641;DHT22;14269;47.358;0.724;2023-09-19T06:46:44;17.0;80.0
26641;DHT22;14269;47.358;0.724;2023-09-19T06:49:23;17.0;79.0
26641;DHT22;14269;47.358;0.724;2023-09-19T06:51:55;17.0;78.0
26641;DHT22;14269;47.358;0.724;2023-09-19T06:54:31;17.0;78.0
26641;DHT22;14269;47.358;0.724;2023-09-19T06:57:10;17.0;78.0
26641;DHT22;14269;47.358;0.724;2023-09-19T06:59:50;17.0;77.0
26641;DHT22;14269;47.358;0.724;2023-09-19T07:02:22;17.0;77.0
26641;DHT22;14269;47.358;0.724;2023-09-19T07:04:53;17.0;77.0
26641;DHT22;14269;47.358;0.724;2023-09-19T07:07:24;17.0;77.0
26641;DHT22;14269;47.358;0.724;2023-09-19T07:09:56;17.0;77.0
26641;DHT22;14269;47.358;0.724;2023-09-19T07:12:38;17.0;77.0
26641;DHT22;14269;47.358;0.724;2023-09-19T07:15:10;17.0;77.0
26641;DHT22;14269;47.358;0.724;2023-09-19T07:17:41;17.0;77.0
26641;DHT22;14269;47.358;0.724;2023-09-19T07:20:16;17.0;77.0
26641;DHT22;14269;47.358;0.724;2023-09-19T07:22:55;17.0;77.0
26641;DHT22;14269;47.358;0.724;2023-09-19T07:25:27;17.0;77.0
26641;DHT22;14269;47.358;0.724;2023-09-19T07:28:00;18.0;76.0
26641;DHT22;14269;47.358;0.724;2023-09-19T07:30:41;17.0;76.0
26641;DHT22;14269;47.358;0.724;2023-09-19T07:33:21;17.0;76.0
26641;DHT22;14269;47.358;0.724;2023-09-19T07:35:53;18.0;75.0
26641;DHT22;14269;47.358;0.724;2023-09-19T07:38:27;18.0;74.0
26641;DHT22;14269;47.358;0.724;2023-09-19T07:41:07;18.0;74.0
26641;DHT22;14269;47.358;0.724;2023-09-19T07:43:48;18.0;73.0
26641;DHT22;14269;47.358;0.724;2023-09-19T07:46:22;18.0;72.0
26641;DHT22;14269;47.358;0.724;2023-09-19T07:49:02;19.0;71.0
26641;DHT22;14269;47.358;0.724;2023-09-19T07:51:33;19.0;71.0
26641;DHT22;14269;47.358;0.724;2023-09-19T07:54:05;19.0;71.0
26641;DHT22;14269;47.358;0.724;2023-09-19T07:56:37;19.0;71.0
26641;DHT22;14269;47.358;0.724;2023-09-19T07:59:10;19.0;70.0
26641;DHT22;14269;47.358;0.724;2023-09-19T08:01:50;20.0;68.0
26641;DHT22;14269;47.358;0.724;2023-09-19T08:04:22;20.0;69.0
26641;DHT22;14269;47.358;0.724;2023-09-19T08:06:55;20.0;67.0
26641;DHT22;14269;47.358;0.724;2023-09-19T08:09:35;20.0;66.0
26641;DHT22;14269;47.358;0.724;2023-09-19T08:12:17;20.0;66.0
26641;DHT22;14269;47.358;0.724;2023-09-19T08:14:59;20.0;67.0
26641;DHT22;14269;47.358;0.724;2023-09-19T08:17:34;20.0;67.0
26641;DHT22;14269;47.358;0.724;2023-09-19T08:20:16;19.0;67.0
26641;DHT22;14269;47.358;0.724;2023-09-19T08:22:54;19.0;68.0
26641;DHT22;14269;47.358;0.724;2023-09-19T08:25:26;19.0;67.0
26641;DHT22;14269;47.358;0.724;2023-09-19T08:28:00;19.0;68.0
26641;DHT22;14269;47.358;0.724;2023-09-19T08:30:40;19.0;69.0
26641;DHT22;14269;47.358;0.724;2023-09-19T08:33:21;20.0;68.0
26641;DHT22;14269;47.358;0.724;2023-09-19T08:35:52;20.0;68.0
26641;DHT22;14269;47.358;0.724;2023-09-19T08:38:35;20.0;68.0
26641;DHT22;14269;47.358;0.724;2023-09-19T08:41:07;20.0;68.0
26641;DHT22;14269;47.358;0.724;2023-09-19T08:43:47;20.0;68.0
26641;DHT22;14269;47.358;0.724;2023-09-19T08:46:20;20.0;67.0
26641;DHT22;14269;47.358;0.724;2023-09-19T08:49:03;20.0;67.0
26641;DHT22;14269;47.358;0.724;2023-09-19T08:51:45;20.0;67.0
26641;DHT22;14269;47.358;0.724;2023-09-19T08:54:28;20.0;67.0
26641;DHT22;14269;47.358;0.724;2023-09-19T08:57:08;21.0;67.0
26641;DHT22;14269;47.358;0.724;2023-09-19T08:59:48;21.0;65.0
26641;DHT22;14269;47.358;0.724;2023-09-19T09:02:31;21.0;64.0
26641;DHT22;14269;47.358;0.724;2023-09-19T09:05:12;21.0;64.0
26641;DHT22;14269;47.358;0.724;2023-09-19T09:07:56;21.0;64.0
26641;DHT22;14269;47.358;0.724;2023-09-19T09:10:35;21.0;66.0
26641;DHT22;14269;47.358;0.724;2023-09-19T09:13:06;21.0;65.0
26641;DHT22;14269;47.358;0.724;2023-09-19T09:15:38;21.0;65.0
26641;DHT22;14269;47.358;0.724;2023-09-19T09:18:10;21.0;64.0
26641;DHT22;14269;47.358;0.724;2023-09-19T09:20:42;21.0;65.0
26641;DHT22;14269;47.358;0.724;2023-09-19T09:23:25;21.0;64.0
26641;DHT22;14269;47.358;0.724;2023-09-19T09:26:07;21.0;63.0
26641;DHT22;14269;47.358;0.724;2023-09-19T09:28:48;21.0;64.0
26641;DHT22;14269;47.358;0.724;2023-09-19T09:31:29;21.0;63.0
26641;DHT22;14269;47.358;0.724;2023-09-19T09:34:13;21.0;62.0
26641;DHT22;14269;47.358;0.724;2023-09-19T09:36:53;22.0;62.0
26641;DHT22;14269;47.358;0.724;2023-09-19T09:39:34;22.0;60.0
26641;DHT22;14269;47.358;0.724;2023-09-19T09:42:06;22.0;60.0
26641;DHT22;14269;47.358;0.724;2023-09-19T09:45:19;21.0;60.0
26641;DHT22;14269;47.358;0.724;2023-09-19T09:48:03;22.0;60.0
26641;DHT22;14269;47.358;0.724;2023-09-19T09:50:56;22.0;59.0
26641;DHT22;14269;47.358;0.724;2023-09-19T09:53:33;22.0;58.0
26641;DHT22;14269;47.358;0.724;2023-09-19T09:56:06;22.0;60.0
26641;DHT22;14269;47.358;0.724;2023-09-19T09:58:50;22.0;60.0
26641;DHT22;14269;47.358;0.724;2023-09-19T10:01:46;22.0;59.0
26641;DHT22;14269;47.358;0.724;2023-09-19T10:04:29;22.0;58.0
26641;DHT22;14269;47.358;0.724;2023-09-19T10:07:25;22.0;58.0
26641;DHT22;14269;47.358;0.724;2023-09-19T10:10:10;22.0;59.0
26641;DHT22;14269;47.358;0.724;2023-09-19T10:13:03;22.0;58.0
26641;DHT22;14269;47.358;0.724;2023-09-19T10:15:37;22.0;58.0
26641;DHT22;14269;47.358;0.724;2023-09-19T10:18:11;21.0;58.0
26641;DHT22;14269;47.358;0.724;2023-09-19T10:20:51;22.0;57.0
26641;DHT22;14269;47.358;0.724;2023-09-19T10:23:23;21.0;57.0
26641;DHT22;14269;47.358;0.724;2023-09-19T10:26:05;21.0;57.0
26641;DHT22;14269;47.358;0.724;2023-09-19T10:28:48;22.0;57.0
26641;DHT22;14269;47.358;0.724;2023-09-19T10:31:28;22.0;58.0
26641;DHT22;14269;47.358;0.724;2023-09-19T10:34:03;22.0;58.0
26641;DHT22;14269;47.358;0.724;2023-09-19T10:36:45;21.0;59.0
26641;DHT22;14269;47.358;0.724;2023-09-19T10:39:23;22.0;59.0
26641;DHT22;14269;47.358;0.724;2023-09-19T10:42:01;21.0;59.0
26641;DHT22;14269;47.358;0.724;2023-09-19T10:44:38;22.0;57.0
26641;DHT22;14269;47.358;0.724;2023-09-19T10:47:19;22.0;56.0
26641;DHT22;14269;47.358;0.724;2023-09-19T10:50:01;22.0;57.0
26641;DHT22;14269;47.358;0.724;2023-09-19T10:52:42;22.0;56.0
26641;DHT22;14269;47.358;0.724;2023-09-19T10:55:24;22.0;55.0
26641;DHT22;14269;47.358;0.724;2023-09-19T10:58:14;22.0;54.0
26641;DHT22;14269;47.358;0.724;2023-09-19T11:01:02;23.0;54.0
26641;DHT22;14269;47.358;0.724;2023-09-19T11:04:20;23.0;52.0
26641;DHT22;14269;47.358;0.724;2023-09-19T11:07:04;23.0;51.0
26641;DHT22;14269;47.358;0.724;2023-09-19T11:09:44;23.0;51.0
26641;DHT22;14269;47.358;0.724;2023-09-19T11:12:56;23.0;50.0
26641;DHT22;14269;47.358;0.724;2023-09-19T11:16:08;23.0;51.0
26641;DHT22;14269;47.358;0.724;2023-09-19T11:18:54;24.0;51.0
26641;DHT22;14269;47.358;0.724;2023-09-19T11:22:02;25.0;52.0
26641;DHT22;14269;47.358;0.724;2023-09-19T11:24:42;25.0;49.0
26641;DHT22;14269;47.358;0.724;2023-09-19T11:27:17;25.0;47.0
26641;DHT22;14269;47.358;0.724;2023-09-19T11:30:25;24.0;47.0
26641;DHT22;14269;47.358;0.724;2023-09-19T11:33:31;23.0;50.0
26641;DHT22;14269;47.358;0.724;2023-09-19T11:36:13;23.0;52.0
26641;DHT22;14269;47.358;0.724;2023-09-19T11:39:10;23.0;52.0
26641;DHT22;14269;47.358;0.724;2023-09-19T11:42:41;24.0;49.0
26641;DHT22;14269;47.358;0.724;2023-09-19T11:46:21;23.0;50.0
26641;DHT22;14269;47.358;0.724;2023-09-19T11:49:10;24.0;49.0
26641;DHT22;14269;47.358;0.724;2023-09-19T11:51:51;24.0;49.0
26641;DHT22;14269;47.358;0.724;2023-09-19T11:54:32;24.0;47.0
26641;DHT22;14269;47.358;0.724;2023-09-19T11:57:20;24.0;47.0
26641;DHT22;14269;47.358;0.724;2023-09-19T11:59:55;24.0;46.0
26641;DHT22;14269;47.358;0.724;2023-09-19T12:02:36;24.0;48.0
26641;DHT22;14269;47.358;0.724;2023-09-19T12:05:28;24.0;49.0
26641;DHT22;14269;47.358;0.724;2023-09-19T12:08:01;24.0;49.0
26641;DHT22;14269;47.358;0.724;2023-09-19T12:10:32;24.0;50.0
26641;DHT22;14269;47.358;0.724;2023-09-19T12:13:06;23.0;51.0
26641;DHT22;14269;47.358;0.724;2023-09-19T12:15:47;23.0;51.0
26641;DHT22;14269;47.358;0.724;2023-09-19T12:18:28;23.0;52.0
26641;DHT22;14269;47.358;0.724;2023-09-19T12:21:24;23.0;51.0
26641;DHT22;14269;47.358;0.724;2023-09-19T12:24:06;23.0;50.0
26641;DHT22;14269;47.358;0.724;2023-09-19T12:26:43;23.0;51.0
26641;DHT22;14269;47.358;0.724;2023-09-19T12:29:24;23.0;50.0
26641;DHT22;14269;47.358;0.724;2023-09-19T12:32:06;24.0;49.0
26641;DHT22;14269;47.358;0.724;2023-09-19T12:34:42;24.0;50.0
26641;DHT22;14269;47.358;0.724;2023-09-19T12:37:21;24.0;51.0
26641;DHT22;14269;47.358;0.724;2023-09-19T12:40:17;24.0;49.0
26641;DHT22;14269;47.358;0.724;2023-09-19T12:42:55;24.0;50.0
26641;DHT22;14269;47.358;0.724;2023-09-19T12:45:37;24.0;48.0
26641;DHT22;14269;47.358;0.724;2023-09-19T12:48:21;24.0;50.0
26641;DHT22;14269;47.358;0.724;2023-09-19T12:51:00;24.0;49.0
26641;DHT22;14269;47.358;0.724;2023-09-19T12:53:43;25.0;48.0
26641;DHT22;14269;47.358;0.724;2023-09-19T12:56:23;24.0;48.0
26641;DHT22;14269;47.358;0.724;2023-09-19T12:59:06;24.0;49.0
26641;DHT22;14269;47.358;0.724;2023-09-19T13:01:46;25.0;47.0
26641;DHT22;14269;47.358;0.724;2023-09-19T13:04:29;25.0;47.0
26641;DHT22;14269;47.358;0.724;2023-09-19T13:07:40;24.0;48.0
26641;DHT22;14269;47.358;0.724;2023-09-19T13:10:24;25.0;49.0
26641;DHT22;14269;47.358;0.724;2023-09-19T13:13:22;25.0;49.0
26641;DHT22;14269;47.358;0.724;2023-09-19T13:15:57;24.0;49.0
26641;DHT22;14269;47.358;0.724;2023-09-19T13:18:45;24.0;49.0
26641;DHT22;14269;47.358;0.724;2023-09-19T13:21:28;24.0;50.0
26641;DHT22;14269;47.358;0.724;2023-09-19T13:24:18;24.0;49.0
26641;DHT22;14269;47.358;0.724;2023-09-19T13:26:52;24.0;49.0
26641;DHT22;14269;47.358;0.724;2023-09-19T13:29:23;24.0;50.0
26641;DHT22;14269;47.358;0.724;2023-09-19T13:31:55;24.0;52.0
26641;DHT22;14269;47.358;0.724;2023-09-19T13:34:29;24.0;52.0
26641;DHT22;14269;47.358;0.724;2023-09-19T13:37:10;24.0;50.0
26641;DHT22;14269;47.358;0.724;2023-09-19T13:39:50;25.0;48.0
26641;DHT22;14269;47.358;0.724;2023-09-19T13:42:22;26.0;48.0
26641;DHT22;14269;47.358;0.724;2023-09-19T13:45:05;25.0;49.0
26641;DHT22;14269;47.358;0.724;2023-09-19T13:47:45;24.0;50.0
26641;DHT22;14269;47.358;0.724;2023-09-19T13:50:23;24.0;51.0
26641;DHT22;14269;47.358;0.724;2023-09-19T13:53:00;24.0;52.0
26641;DHT22;14269;47.358;0.724;2023-09-19T13:55:41;23.0;53.0
26641;DHT22;14269;47.358;0.724;2023-09-19T13:58:12;23.0;53.0
26641;DHT22;14269;47.358;0.724;2023-09-19T14:00:44;23.0;54.0
26641;DHT22;14269;47.358;0.724;2023-09-19T14:03:15;23.0;53.0
26641;DHT22;14269;47.358;0.724;2023-09-19T14:05:48;23.0;54.0
26641;DHT22;14269;47.358;0.724;2023-09-19T14:08:29;23.0;54.0
26641;DHT22;14269;47.358;0.724;2023-09-19T14:11:05;23.0;54.0
26641;DHT22;14269;47.358;0.724;2023-09-19T14:13:46;23.0;54.0
26641;DHT22;14269;47.358;0.724;2023-09-19T14:16:24;23.0;55.0
26641;DHT22;14269;47.358;0.724;2023-09-19T14:18:56;23.0;54.0
26641;DHT22;14269;47.358;0.724;2023-09-19T14:21:27;23.0;55.0
26641;DHT22;14269;47.358;0.724;2023-09-19T14:23:59;23.0;55.0
26641;DHT22;14269;47.358;0.724;2023-09-19T14:26:31;23.0;55.0
26641;DHT22;14269;47.358;0.724;2023-09-19T14:29:02;23.0;56.0
26641;DHT22;14269;47.358;0.724;2023-09-19T14:31:36;23.0;56.0
26641;DHT22;14269;47.358;0.724;2023-09-19T14:34:17;23.0;56.0
26641;DHT22;14269;47.358;0.724;2023-09-19T14:36:57;23.0;56.0
26641;DHT22;14269;47.358;0.724;2023-09-19T14:39:29;23.0;57.0
26641;DHT22;14269;47.358;0.724;2023-09-19T14:42:01;23.0;57.0
26641;DHT22;14269;47.358;0.724;2023-09-19T14:44:32;23.0;58.0
26641;DHT22;14269;47.358;0.724;2023-09-19T14:47:07;23.0;58.0
26641;DHT22;14269;47.358;0.724;2023-09-19T14:49:46;23.0;58.0
26641;DHT22;14269;47.358;0.724;2023-09-19T14:52:17;23.0;59.0
26641;DHT22;14269;47.358;0.724;2023-09-19T14:54:49;24.0;58.0
26641;DHT22;14269;47.358;0.724;2023-09-19T14:57:24;24.0;57.0
26641;DHT22;14269;47.358;0.724;2023-09-19T15:00:06;24.0;57.0
26641;DHT22;14269;47.358;0.724;2023-09-19T15:02:45;24.0;56.0
26641;DHT22;14269;47.358;0.724;2023-09-19T15:05:27;24.0;56.0
26641;DHT22;14269;47.358;0.724;2023-09-19T15:08:08;24.0;55.0
26641;DHT22;14269;47.358;0.724;2023-09-19T15:10:39;24.0;57.0
26641;DHT22;14269;47.358;0.724;2023-09-19T15:13:11;24.0;57.0
26641;DHT22;14269;47.358;0.724;2023-09-19T15:15:45;23.0;57.0
26641;DHT22;14269;47.358;0.724;2023-09-19T15:18:24;23.0;58.0
26641;DHT22;14269;47.358;0.724;2023-09-19T15:20:56;23.0;59.0
26641;DHT22;14269;47.358;0.724;2023-09-19T15:23:29;23.0;59.0
26641;DHT22;14269;47.358;0.724;2023-09-19T15:26:12;23.0;59.0
26641;DHT22;14269;47.358;0.724;2023-09-19T15:28:54;23.0;59.0
26641;DHT22;14269;47.358;0.724;2023-09-19T15:31:33;23.0;59.0
26641;DHT22;14269;47.358;0.724;2023-09-19T15:34:16;24.0;59.0
26641;DHT22;14269;47.358;0.724;2023-09-19T15:36:46;23.0;59.0
26641;DHT22;14269;47.358;0.724;2023-09-19T15:39:18;23.0;60.0
26641;DHT22;14269;47.358;0.724;2023-09-19T15:42:00;23.0;60.0
26641;DHT22;14269;47.358;0.724;2023-09-19T15:44:32;23.0;61.0
26641;DHT22;14269;47.358;0.724;2023-09-19T15:47:13;23.0;60.0
26641;DHT22;14269;47.358;0.724;2023-09-19T15:49:45;24.0;60.0
26641;DHT22;14269;47.358;0.724;2023-09-19T15:52:17;23.0;58.0
26641;DHT22;14269;47.358;0.724;2023-09-19T15:54:48;23.0;59.0
26641;DHT22;14269;47.358;0.724;2023-09-19T15:57:30;23.0;59.0
26641;DHT22;14269;47.358;0.724;2023-09-19T16:00:03;23.0;59.0
26641;DHT22;14269;47.358;0.724;2023-09-19T16:02:45;22.0;59.0
26641;DHT22;14269;47.358;0.724;2023-09-19T16:05:25;22.0;60.0
26641;DHT22;14269;47.358;0.724;2023-09-19T16:07:57;22.0;60.0
26641;DHT22;14269;47.358;0.724;2023-09-19T16:10:29;22.0;60.0
26641;DHT22;14269;47.358;0.724;2023-09-19T16:13:00;22.0;60.0
26641;DHT22;14269;47.358;0.724;2023-09-19T16:15:32;22.0;61.0
26641;DHT22;14269;47.358;0.724;2023-09-19T16:18:04;22.0;61.0
26641;DHT22;14269;47.358;0.724;2023-09-19T16:20:38;22.0;61.0
26641;DHT22;14269;47.358;0.724;2023-09-19T16:23:17;22.0;61.0
26641;DHT22;14269;47.358;0.724;2023-09-19T16:26:00;22.0;61.0
26641;DHT22;14269;47.358;0.724;2023-09-19T16:28:41;22.0;60.0
26641;DHT22;14269;47.358;0.724;2023-09-19T16:31:22;22.0;61.0
26641;DHT22;14269;47.358;0.724;2023-09-19T16:33:55;22.0;60.0
26641;DHT22;14269;47.358;0.724;2023-09-19T16:36:36;22.0;61.0
26641;DHT22;14269;47.358;0.724;2023-09-19T16:39:07;22.0;61.0
26641;DHT22;14269;47.358;0.724;2023-09-19T16:41:39;22.0;61.0
26641;DHT22;14269;47.358;0.724;2023-09-19T16:44:20;22.0;62.0
26641;DHT22;14269;47.358;0.724;2023-09-19T16:46:52;22.0;61.0
26641;DHT22;14269;47.358;0.724;2023-09-19T16:49:25;22.0;62.0
26641;DHT22;14269;47.358;0.724;2023-09-19T16:52:06;22.0;62.0
26641;DHT22;14269;47.358;0.724;2023-09-19T16:54:38;22.0;62.0
26641;DHT22;14269;47.358;0.724;2023-09-19T16:57:21;22.0;62.0
26641;DHT22;14269;47.358;0.724;2023-09-19T17:00:01;22.0;62.0
26641;DHT22;14269;47.358;0.724;2023-09-19T17:02:46;22.0;63.0
26641;DHT22;14269;47.358;0.724;2023-09-19T17:05:24;22.0;63.0
26641;DHT22;14269;47.358;0.724;2023-09-19T17:08:07;22.0;63.0
26641;DHT22;14269;47.358;0.724;2023-09-19T17:10:48;22.0;64.0
26641;DHT22;14269;47.358;0.724;2023-09-19T17:13:19;22.0;64.0
26641;DHT22;14269;47.358;0.724;2023-09-19T17:15:59;22.0;64.0